Terminal Aerodrome Forecast
Issued by NWS

Home | Current Version | Previous Version | Text Only | Print | Product List | Glossary On
Versions: 1 2 3 4 5 6 7 8 9 10 11 12 13 14
000
FTUS41 KPHI 281902 AAA
TAFMIV
TAF AMD
KMIV 281902Z 2819/2918 24004KT P6SM VCSH SCT040
     FM282300 21004KT P6SM SCT045
     FM290100 VRB03KT P6SM SCT250
     FM290800 VRB03KT 4SM BR SCT010
     FM291300 22008KT P6SM SCT045=

USA.gov is the U.S. government's official web portal to all federal, state and local government web resources and services.